Airfield :
LOGIN :

Register | Disclaimer

   EN    FR    IT 

 










Legend :    VFR   Marginal VFR   IFR   Intensive IFR   Very Intensive IFR
Visi :
Ceiling :
>= 8 km
>= 3000ft
5 to 8 km
1000 to 3000 ft
1500m to 5 km
500 to 1000 ft
800 to 1500m
200 to 500 ft
< 800m
< 200 ft
Symbols :   Thunderstorms  Fog  Heavy snow  Heavy precipitations  Wind > 20 kt
SIGMETs :     Misc.  Thunderstorms  Icing  Turbulence  Mountain Waves  Volcanic Ashes







- Airport Elevation : 190 ft
- IATA code : CAX
- Download approach charts


EGNC - Carlisle

CURRENT METAR :
  • 171120Z 19013KT 150V220 9999 FEW012 BKN018 05/04 Q1013

EXPIRED METARs :
  • 171050Z 18012KT 150V210 9000 -RA FEW012 BKN018 04/04 Q1013
  • 171020Z 18012KT 150V210 7000 -RA SCT012 BKN018 04/04 Q1014
  • 170950Z 18012KT 150V220 6000 -RA SCT016 BKN021 04/03 Q1015
  • 170920Z 18011KT 140V210 9999 -RA SCT016 BKN021 04/03 Q1015
  • 170850Z 18011KT 120V210 9999 -RA FEW014 SCT018 BKN021 04/03 Q1015

TAF TAF EGNC
Valid from the 17 at 12:00 until the 17 at 18:00 UTC


171057Z 1712/1718 18012KT 9999 SCT012
BECMG 1712/1715 27012KT
TEMPO 1712/1715 2000 RADZ BR BKN003
ATIS : +44 1228 574 123
No reported NOTAMs for that airfield.



MET'MAP, your aeronautical weather chart ! - Copyright ORBIFLY December 2007 - Disclaimer

ORBIFLY MET'MAP TEAM :

Programming & Development : Alexandra Zaïnal
Concept & Development : Baudouin d'Aumeries
Co-Development & Prog : Marc-Olivier Méhu
Technical & hardware support : Manuel Goepfert

Contact : metmap@orbifly.com




SOURCES & CREDITS :

   NOAA